Arnoldsburg, West Virginia
Current Conditions -  °F | °C
As of 5:54 PM on Wednesday 17 Dec 2014 (Local Time) from KCRW Reporting Station
Overcast Overcast  
Wind Chill: 31°   Ceiling: 2400
Heat Index: 37°   Visibility: 10mi
Dew Point: 27°   Wind: 8mph
Humidity: 67%   Direction: 270°W
Pressure: 30.16"   Gusts: 20mph
Location:  38.79°N, 81.13°W
Report Text: KCRW 172254Z 27007G17KT 10SM OVC024 03/M03 A3016 RMK AO2 SLP220 T00281028
Loading
Personal Weather Stations






























Interactive Weather Map New forecast layout! Learn more

10-Day Weather Forecast

Advertisements
Track Severe Weather on mobile